createdAt,value
2022-09-19T00:04:31.284Z,36.91
2022-09-19T00:08:48.472Z,36.42
2022-09-19T00:33:15.340Z,39.19
2022-09-19T00:36:51.752Z,39.91
2022-09-19T00:44:53.297Z,41.29
2022-09-19T00:52:50.838Z,42.95
2022-09-19T00:54:18.563Z,43.22
2022-09-19T00:55:49.298Z,43.42
2022-09-19T01:04:27.046Z,45.19
2022-09-19T01:43:53.275Z,55.38
2022-09-19T01:45:00.618Z,55.63
2022-09-19T01:46:13.760Z,55.66
2022-09-19T01:48:00.276Z,56.08
2022-09-19T01:49:34.010Z,56.35
2022-09-19T01:51:00.339Z,56.66
2022-09-19T01:52:52.401Z,57.12
2022-09-19T01:54:17.392Z,57.35
2022-09-19T01:56:23.892Z,57.69
2022-09-19T01:58:06.545Z,57.87
2022-09-19T01:59:28.107Z,57.99
2022-09-19T02:00:38.371Z,58.52
2022-09-19T02:06:39.723Z,59.18
2022-09-19T02:08:10.290Z,59.36
2022-09-19T02:09:37.673Z,59.49
2022-09-19T03:20:48.060Z,65.86
2022-09-19T03:55:58.717Z,66.79
2022-09-19T04:04:11.503Z,68.02
2022-09-19T04:05:23.611Z,67.71
2022-09-19T04:06:31.324Z,67.70
2022-09-19T04:07:40.093Z,67.55
2022-09-19T04:08:49.612Z,67.47
2022-09-19T04:09:58.492Z,67.70
2022-09-19T04:11:06.219Z,68.04
2022-09-19T04:12:16.259Z,68.14
2022-09-19T04:13:24.333Z,68.32
2022-09-19T04:14:33.036Z,68.25
2022-09-19T04:15:40.310Z,68.51
2022-09-19T04:17:02.607Z,68.33
2022-09-19T04:18:17.167Z,68.15
2022-09-19T04:19:28.518Z,68.21
2022-09-19T04:20:56.691Z,68.18
2022-09-19T04:22:09.993Z,68.26
2022-09-19T04:23:29.409Z,68.42
2022-09-19T04:24:36.110Z,68.69
2022-09-19T04:26:06.621Z,68.79
2022-09-19T04:27:21.442Z,68.93
2022-09-19T04:28:52.261Z,68.87
2022-09-19T04:30:56.914Z,68.60
2022-09-19T04:32:14.153Z,68.63
2022-09-19T04:33:23.909Z,68.54
2022-09-19T04:34:32.887Z,68.64
2022-09-19T04:35:45.414Z,69.07
2022-09-19T04:36:53.525Z,69.17
2022-09-19T04:38:00.532Z,69.35
2022-09-19T04:39:08.505Z,69.52
2022-09-19T04:40:18.391Z,69.27
2022-09-19T04:41:25.484Z,69.09
2022-09-19T04:42:34.358Z,69.08
2022-09-19T04:43:42.115Z,69.41
2022-09-19T04:45:12.693Z,68.97
2022-09-19T04:46:43.497Z,68.97
2022-09-19T04:47:51.662Z,69.18
2022-09-19T04:48:59.431Z,69.53
2022-09-19T04:50:12.744Z,69.44
2022-09-19T04:51:19.537Z,69.52
2022-09-19T04:52:28.748Z,69.52
2022-09-19T04:53:35.413Z,69.65
2022-09-19T04:54:42.901Z,69.50
2022-09-19T04:55:52.741Z,69.54
2022-09-19T04:56:59.609Z,69.56
2022-09-19T04:58:09.142Z,69.62
2022-09-19T04:59:33.458Z,69.83
2022-09-19T05:00:40.894Z,69.93
2022-09-19T05:01:53.995Z,70.26
2022-09-19T05:03:03.791Z,70.48
2022-09-19T05:04:11.055Z,70.27
2022-09-19T05:05:19.801Z,70.26
2022-09-19T05:06:30.202Z,70.19
2022-09-19T05:07:37.279Z,70.10
2022-09-19T05:08:47.498Z,70.29
2022-09-19T05:10:22.729Z,70.43
2022-09-19T05:11:32.429Z,70.58
2022-09-19T05:12:39.027Z,70.44
2022-09-19T05:13:49.083Z,70.48
2022-09-19T05:14:59.939Z,70.57
2022-09-19T05:16:07.948Z,70.82
2022-09-19T05:17:16.311Z,70.68
2022-09-19T05:18:23.074Z,70.62
2022-09-19T05:19:33.915Z,70.62
2022-09-19T05:20:39.898Z,70.55
2022-09-19T05:21:46.620Z,70.70
2022-09-19T05:23:03.798Z,70.64
2022-09-19T05:24:11.625Z,70.67
2022-09-19T05:25:18.738Z,70.99
2022-09-19T05:26:25.917Z,71.37
2022-09-19T05:27:39.120Z,71.49
2022-09-19T05:28:47.977Z,71.50
2022-09-19T05:29:57.479Z,71.31
2022-09-19T05:31:08.664Z,71.18
2022-09-19T05:32:16.790Z,71.06
2022-09-19T05:33:30.766Z,71.16
2022-09-19T05:34:38.118Z,71.27
2022-09-19T05:35:45.824Z,71.52
2022-09-19T05:37:05.905Z,71.59
2022-09-19T05:38:32.295Z,71.71
2022-09-19T05:39:58.597Z,71.95
2022-09-19T05:41:26.475Z,72.05
2022-09-19T05:42:40.424Z,72.03
2022-09-19T05:43:47.097Z,72.32
2022-09-19T05:44:56.114Z,72.25
2022-09-19T05:46:02.497Z,72.31
2022-09-19T05:47:09.236Z,72.41
2022-09-19T05:48:15.984Z,72.46
2022-09-19T05:49:23.683Z,72.74
2022-09-19T05:50:32.310Z,72.82
2022-09-19T05:51:38.721Z,72.80
2022-09-19T05:53:12.201Z,72.97
2022-09-19T05:54:18.317Z,72.84
2022-09-19T05:55:51.617Z,72.84
2022-09-19T05:57:32.874Z,72.93
2022-09-19T05:58:39.978Z,72.87
2022-09-19T05:59:46.667Z,73.00
2022-09-19T06:00:53.338Z,73.44
2022-09-19T06:02:03.162Z,73.71
2022-09-19T06:03:23.658Z,73.56
2022-09-19T06:04:34.259Z,73.61
2022-09-19T06:05:43.550Z,73.62
2022-09-19T06:06:49.977Z,73.53
2022-09-19T06:07:59.869Z,73.38
2022-09-19T06:09:06.345Z,73.60
2022-09-19T06:10:17.039Z,73.51
2022-09-19T06:11:25.093Z,73.30
2022-09-19T06:12:34.555Z,73.56
2022-09-19T06:14:00.277Z,73.68
2022-09-19T06:15:07.905Z,73.74
2022-09-19T06:16:13.584Z,73.83
2022-09-19T06:17:34.498Z,73.86
2022-09-19T06:19:07.592Z,73.85
2022-09-19T06:20:16.580Z,73.94
2022-09-19T06:21:30.564Z,73.97
2022-09-19T06:22:36.761Z,73.81
2022-09-19T06:23:43.167Z,73.68
2022-09-19T06:24:49.073Z,73.92
2022-09-19T06:25:55.064Z,74.28
2022-09-19T06:27:01.125Z,74.11
2022-09-19T06:28:18.804Z,74.03
2022-09-19T06:29:34.207Z,74.60
2022-09-19T06:31:04.988Z,74.70
2022-09-19T06:32:35.530Z,74.69
2022-09-19T06:33:53.460Z,74.49
2022-09-19T06:35:04.221Z,74.41
2022-09-19T06:36:14.408Z,74.32
2022-09-19T06:37:22.992Z,74.24
2022-09-19T06:38:29.293Z,74.37
2022-09-19T06:39:41.788Z,74.36
2022-09-19T06:41:10.149Z,74.96
2022-09-19T06:42:38.108Z,75.44
2022-09-19T06:44:12.918Z,75.21
2022-09-19T06:45:42.142Z,75.17
2022-09-19T06:46:59.734Z,75.68
2022-09-19T06:48:22.034Z,75.80
2022-09-19T06:49:45.699Z,75.71
2022-09-19T06:51:28.991Z,75.39
2022-09-19T06:52:36.320Z,75.51
2022-09-19T06:53:44.138Z,75.48
2022-09-19T06:54:50.984Z,75.59
2022-09-19T06:55:58.151Z,75.70
2022-09-19T06:57:04.409Z,75.83
2022-09-19T06:58:12.381Z,76.01
2022-09-19T06:59:20.019Z,76.07
2022-09-19T07:00:26.666Z,75.89
2022-09-19T07:01:33.122Z,75.91
2022-09-19T07:02:40.353Z,75.96
2022-09-19T07:03:47.645Z,75.98
2022-09-19T07:05:00.270Z,76.01
2022-09-19T07:06:36.302Z,76.05
2022-09-19T07:07:44.515Z,76.37
2022-09-19T07:08:53.061Z,76.43
2022-09-19T07:10:02.611Z,76.56
2022-09-19T07:11:09.697Z,76.62
2022-09-19T07:12:20.457Z,76.66
2022-09-19T07:13:32.454Z,76.44
2022-09-19T07:14:43.669Z,76.22
2022-09-19T07:15:50.930Z,76.20
2022-09-19T07:16:59.010Z,76.33
2022-09-19T07:18:10.036Z,76.47
2022-09-19T07:19:17.001Z,76.44
2022-09-19T07:20:23.870Z,76.60
2022-09-19T07:21:50.457Z,76.58
2022-09-19T07:23:30.956Z,76.97
2022-09-19T07:24:57.443Z,76.85
2022-09-19T07:26:11.107Z,77.16
2022-09-19T07:27:17.502Z,77.16
2022-09-19T07:28:24.178Z,77.17
2022-09-19T07:29:33.728Z,77.30
2022-09-19T07:30:41.113Z,77.34
2022-09-19T07:31:50.587Z,77.19
2022-09-19T07:32:59.229Z,77.20
2022-09-19T07:34:06.699Z,77.28
2022-09-19T07:35:20.491Z,77.76
2022-09-19T07:36:31.942Z,77.56
2022-09-19T07:37:42.153Z,77.56
2022-09-19T07:39:24.429Z,77.69
2022-09-19T07:40:55.893Z,77.78
2022-09-19T07:42:06.302Z,78.02
2022-09-19T07:43:25.973Z,78.27
2022-09-19T07:44:53.163Z,78.17
2022-09-19T07:46:21.274Z,78.01
2022-09-19T07:48:08.791Z,78.11
2022-09-19T07:49:36.255Z,78.03
2022-09-19T07:51:09.943Z,77.99
2022-09-19T07:52:18.545Z,77.82
2022-09-19T07:53:24.932Z,77.85
2022-09-19T07:54:30.801Z,77.90
2022-09-19T07:55:39.455Z,77.97
2022-09-19T07:56:46.531Z,78.03
2022-09-19T07:57:57.153Z,78.15
2022-09-19T07:59:19.585Z,78.08
2022-09-19T08:00:42.327Z,78.19
2022-09-19T08:01:52.194Z,78.10
2022-09-19T08:03:17.378Z,77.99
2022-09-19T08:04:25.906Z,78.15
2022-09-19T08:05:36.123Z,78.30
2022-09-19T08:06:43.157Z,78.50
2022-09-19T08:07:49.327Z,78.52
2022-09-19T08:08:56.484Z,78.77
2022-09-19T08:10:27.361Z,79.04
2022-09-19T08:11:39.170Z,78.90
2022-09-19T08:12:46.764Z,78.86
2022-09-19T08:13:53.239Z,78.95
2022-09-19T08:15:03.131Z,78.87
2022-09-19T08:16:09.494Z,78.67
2022-09-19T08:17:17.206Z,78.80
2022-09-19T08:18:25.792Z,78.83
2022-09-19T08:19:33.150Z,79.08
2022-09-19T08:20:41.503Z,79.23
2022-09-19T08:21:47.489Z,79.36
2022-09-19T08:22:58.961Z,79.48
2022-09-19T08:24:04.840Z,79.56
2022-09-19T08:25:12.827Z,79.70
2022-09-19T08:26:21.959Z,79.77
2022-09-19T08:27:28.195Z,79.71
2022-09-19T08:28:36.421Z,79.59
2022-09-19T08:29:42.658Z,79.67
2022-09-19T08:30:56.492Z,79.75
2022-09-19T08:32:04.129Z,79.78
2022-09-19T08:33:13.234Z,79.55
2022-09-19T08:34:20.841Z,79.69
2022-09-19T08:35:27.779Z,79.83
2022-09-19T08:36:36.612Z,79.96
2022-09-19T08:37:42.451Z,79.97
2022-09-19T08:38:48.202Z,80.28
2022-09-19T08:40:13.073Z,80.08
2022-09-19T08:41:51.668Z,79.81
2022-09-19T08:43:22.909Z,79.72
2022-09-19T08:44:38.657Z,79.80
2022-09-19T08:45:49.940Z,79.81
2022-09-19T08:47:05.985Z,79.97
2022-09-19T08:48:20.208Z,80.09
2022-09-19T08:49:52.475Z,79.98
2022-09-19T08:51:08.379Z,79.94
2022-09-19T08:52:35.148Z,79.76
2022-09-19T08:53:43.660Z,80.01
2022-09-19T08:54:50.395Z,79.90
2022-09-19T08:56:02.584Z,79.95
2022-09-19T08:57:28.123Z,80.03
2022-09-19T08:58:38.992Z,80.05
2022-09-19T09:00:27.163Z,80.33
2022-09-19T09:01:37.143Z,80.48
2022-09-19T09:03:26.154Z,80.40
2022-09-19T09:04:38.300Z,80.30
2022-09-19T09:06:01.354Z,80.38
2022-09-19T09:07:49.589Z,80.50
2022-09-19T09:09:35.439Z,80.46
2022-09-19T09:10:52.595Z,80.42
2022-09-19T09:11:59.327Z,80.30
2022-09-19T09:13:39.796Z,80.38
2022-09-19T09:15:18.814Z,80.52
2022-09-19T09:17:04.017Z,80.52
2022-09-19T09:18:32.668Z,80.69
2022-09-19T09:20:07.961Z,80.78
2022-09-19T09:21:20.666Z,80.95
2022-09-19T09:22:51.705Z,81.16
2022-09-19T09:24:34.651Z,81.01
2022-09-19T09:26:23.106Z,80.96
2022-09-19T09:27:37.211Z,80.76
2022-09-19T09:29:13.603Z,80.85
2022-09-19T09:30:26.848Z,80.77
2022-09-19T09:31:58.525Z,80.94
2022-09-19T09:33:30.005Z,81.06
2022-09-19T09:34:46.044Z,81.09
2022-09-19T09:35:59.220Z,81.16
2022-09-19T09:37:16.708Z,81.20
2022-09-19T09:38:50.932Z,81.07
2022-09-19T09:40:45.368Z,81.02
2022-09-19T09:41:59.809Z,80.86
2022-09-19T09:43:07.369Z,80.87
2022-09-19T09:44:15.811Z,81.03
2022-09-19T09:45:33.166Z,81.33
2022-09-19T09:47:07.270Z,81.64
2022-09-19T09:48:36.165Z,81.64
2022-09-19T09:49:45.126Z,81.60
2022-09-19T09:51:04.023Z,81.53
2022-09-19T09:52:17.433Z,81.66
2022-09-19T09:53:53.937Z,81.78
2022-09-19T09:55:42.958Z,81.65
2022-09-19T09:56:52.417Z,81.50
2022-09-19T09:58:08.842Z,81.43
2022-09-19T09:59:43.608Z,81.54
2022-09-19T10:01:12.438Z,81.65
2022-09-19T10:03:08.413Z,81.84
2022-09-19T10:04:38.454Z,82.14
2022-09-19T10:06:17.364Z,82.14
2022-09-19T10:07:39.493Z,82.13
2022-09-19T10:09:09.743Z,82.00
2022-09-19T10:10:20.115Z,81.99
2022-09-19T10:13:30.613Z,82.14
2022-09-19T10:14:39.985Z,82.60
2022-09-19T10:16:06.113Z,82.87
2022-09-19T10:17:12.633Z,83.11
2022-09-19T10:18:23.616Z,83.24
2022-09-19T10:19:50.493Z,83.38
2022-09-19T10:20:57.834Z,83.29
2022-09-19T10:22:15.409Z,83.34
2022-09-19T10:23:27.536Z,83.20
2022-09-19T10:24:57.329Z,83.27
2022-09-19T10:26:18.499Z,83.14
2022-09-19T10:27:51.684Z,83.00
2022-09-19T10:29:07.138Z,82.97
2022-09-19T10:30:27.133Z,83.12
2022-09-19T10:31:41.378Z,83.29
2022-09-19T10:32:58.825Z,83.44
2022-09-19T10:34:37.243Z,83.75
2022-09-19T10:35:47.884Z,84.31
2022-09-19T10:36:54.111Z,84.34
2022-09-19T10:38:19.692Z,84.54
2022-09-19T10:39:25.892Z,84.85
2022-09-19T10:40:32.923Z,84.90
2022-09-19T10:41:42.047Z,85.06
2022-09-19T10:42:49.828Z,85.33
2022-09-19T10:44:24.637Z,85.54
2022-09-19T10:45:38.194Z,85.70
2022-09-19T10:46:48.109Z,85.80
2022-09-19T10:48:29.042Z,85.88
2022-09-19T10:49:47.874Z,86.07
2022-09-19T10:51:14.207Z,86.21
2022-09-19T10:52:40.764Z,86.37
2022-09-19T10:53:55.970Z,86.50
2022-09-19T10:55:06.421Z,86.31
2022-09-19T10:56:31.373Z,86.30
2022-09-19T10:58:00.093Z,86.75
2022-09-19T10:59:20.621Z,87.01
2022-09-19T11:01:06.016Z,87.18
2022-09-19T11:02:31.544Z,87.00
2022-09-19T11:03:41.004Z,86.95
2022-09-19T11:05:05.627Z,86.81
2022-09-19T11:06:20.172Z,86.63
2022-09-19T11:07:35.432Z,86.44
2022-09-19T11:08:48.884Z,86.27
2022-09-19T11:10:15.729Z,86.33
2022-09-19T11:11:52.792Z,86.11
2022-09-19T11:13:16.194Z,85.90
2022-09-19T11:14:50.452Z,85.75
2022-09-19T11:16:39.858Z,85.64
2022-09-19T11:18:14.137Z,85.72
2022-09-19T11:20:01.149Z,85.67
2022-09-19T11:21:13.074Z,85.68
2022-09-19T11:22:33.717Z,85.66
2022-09-19T11:24:28.337Z,85.69
2022-09-19T11:26:00.102Z,85.63
2022-09-19T11:27:25.595Z,85.62
2022-09-19T11:28:45.122Z,85.64
2022-09-19T11:30:26.251Z,85.69
2022-09-19T11:35:38.914Z,86.06
2022-09-19T11:36:56.657Z,86.20
2022-09-19T11:40:19.655Z,86.24
2022-09-19T11:41:48.411Z,86.36
2022-09-19T11:42:56.797Z,86.56
2022-09-19T11:44:28.655Z,86.30
2022-09-19T11:46:18.247Z,86.33
2022-09-19T11:47:48.489Z,86.25
2022-09-19T11:49:07.983Z,86.38
2022-09-19T11:50:22.739Z,86.39
2022-09-19T11:52:03.631Z,86.35
2022-09-19T11:53:48.256Z,86.30
2022-09-19T11:55:25.357Z,86.24
2022-09-19T11:57:11.913Z,86.35
2022-09-19T11:58:39.932Z,86.39
2022-09-19T12:00:15.009Z,86.58
2022-09-19T12:02:26.403Z,86.88
2022-09-19T12:04:10.549Z,87.28
2022-09-19T12:06:06.052Z,87.51
2022-09-19T12:07:27.808Z,87.69
2022-09-19T12:09:02.874Z,87.91
2022-09-19T12:10:34.452Z,88.26
2022-09-19T12:11:56.085Z,88.27
2022-09-19T12:13:22.562Z,88.19
2022-09-19T12:14:41.766Z,87.88
2022-09-19T12:16:00.974Z,87.82
2022-09-19T12:17:08.645Z,87.80
2022-09-19T12:18:49.055Z,87.87
2022-09-19T12:20:25.389Z,87.77
2022-09-19T12:21:49.288Z,87.70
2022-09-19T12:23:27.489Z,87.56
2022-09-19T12:25:00.565Z,87.46
2022-09-19T12:26:10.356Z,87.34
2022-09-19T12:27:41.892Z,87.24
2022-09-19T12:29:27.770Z,87.22
2022-09-19T12:30:42.013Z,87.27
2022-09-19T12:31:52.343Z,87.32
2022-09-19T12:33:22.306Z,87.27
2022-09-19T12:34:40.228Z,87.28
2022-09-19T12:36:09.903Z,87.30
2022-09-19T12:37:23.541Z,87.27
2022-09-19T12:38:52.392Z,87.21
2022-09-19T12:40:41.389Z,87.23
2022-09-19T12:41:57.676Z,87.40
2022-09-19T12:43:34.850Z,87.61
2022-09-19T12:45:37.618Z,87.92
2022-09-19T12:47:23.333Z,88.05
2022-09-19T12:48:45.340Z,88.24
2022-09-19T12:50:38.049Z,88.33
2022-09-19T12:52:03.662Z,88.52
2022-09-19T12:53:30.496Z,88.65
2022-09-19T12:54:59.632Z,88.71
2022-09-19T12:56:08.934Z,88.78
2022-09-19T12:57:25.599Z,88.67
2022-09-19T12:58:35.189Z,88.67
2022-09-19T12:59:43.823Z,88.60
2022-09-19T13:00:49.971Z,88.70
2022-09-19T13:02:25.730Z,89.03
2022-09-19T13:03:37.279Z,89.60
2022-09-19T13:04:46.309Z,90.24
2022-09-19T13:06:22.276Z,90.50
2022-09-19T13:07:36.905Z,90.69
2022-09-19T13:09:08.547Z,90.73
2022-09-19T13:10:23.105Z,90.64
2022-09-19T13:11:35.948Z,90.74
2022-09-19T13:13:13.916Z,90.95
2022-09-19T13:14:48.523Z,91.28
2022-09-19T13:16:15.428Z,91.53
2022-09-19T13:17:41.776Z,91.41
2022-09-19T13:19:09.746Z,91.07
2022-09-19T13:20:39.768Z,90.74
2022-09-19T13:22:09.456Z,90.51
2022-09-19T13:23:37.730Z,90.24
2022-09-19T13:24:52.315Z,89.91
2022-09-19T13:26:03.010Z,89.70
2022-09-19T13:27:16.695Z,89.68
2022-09-19T13:28:23.535Z,89.54
2022-09-19T13:29:30.996Z,89.40
2022-09-19T13:31:06.666Z,89.28
2022-09-19T13:32:36.543Z,89.15
2022-09-19T13:33:49.424Z,89.02
2022-09-19T13:35:13.539Z,88.76
2022-09-19T13:36:30.933Z,88.53
2022-09-19T13:37:46.048Z,88.27
2022-09-19T13:38:54.384Z,87.97
2022-09-19T13:40:08.296Z,87.64
2022-09-19T13:41:46.914Z,87.52
2022-09-19T13:43:15.543Z,87.41
2022-09-19T13:44:41.520Z,87.16
2022-09-19T13:46:14.323Z,86.88
2022-09-19T13:47:30.184Z,86.77
2022-09-19T13:49:17.940Z,86.62
2022-09-19T13:50:34.285Z,86.36
2022-09-19T13:51:48.037Z,86.15
2022-09-19T13:53:03.233Z,85.93
2022-09-19T13:54:25.631Z,85.78
2022-09-19T13:55:35.959Z,85.76
2022-09-19T13:56:42.051Z,85.46
2022-09-19T13:57:50.045Z,85.27
2022-09-19T13:59:29.216Z,85.14
2022-09-19T14:00:38.948Z,84.93
2022-09-19T14:02:01.950Z,84.75
2022-09-19T14:03:16.952Z,84.16
2022-09-19T14:04:46.312Z,83.89
2022-09-19T14:06:15.152Z,83.54
2022-09-19T14:11:02.722Z,82.19
2022-09-19T14:12:56.493Z,81.95
2022-09-19T14:14:03.241Z,81.72
2022-09-19T14:15:30.761Z,81.81
2022-09-19T14:16:39.202Z,81.35
2022-09-19T14:17:45.680Z,81.49
2022-09-19T14:18:59.300Z,81.37
2022-09-19T14:20:14.261Z,81.28
2022-09-19T14:21:30.365Z,81.38
2022-09-19T14:22:36.724Z,81.33
2022-09-19T14:23:46.207Z,81.12
2022-09-19T14:24:52.335Z,81.04
2022-09-19T14:26:45.166Z,80.84
2022-09-19T14:28:15.237Z,80.68
2022-09-19T14:29:39.457Z,80.54
2022-09-19T14:31:13.276Z,80.45
2022-09-19T14:33:06.370Z,80.32
2022-09-19T14:34:33.254Z,80.15
2022-09-19T14:35:49.692Z,80.03
2022-09-19T14:37:23.705Z,79.69
2022-09-19T14:38:51.825Z,79.54
2022-09-19T14:40:10.058Z,79.59
2022-09-19T14:42:06.152Z,79.66
2022-09-19T14:43:39.440Z,79.28
2022-09-19T14:45:17.805Z,79.05
2022-09-19T14:46:43.531Z,78.78
2022-09-19T14:47:54.498Z,78.45
2022-09-19T14:49:34.940Z,78.32
2022-09-19T14:50:51.911Z,78.35
2022-09-19T14:52:17.595Z,78.49
2022-09-19T14:53:27.254Z,78.30
2022-09-19T14:55:05.008Z,78.00
2022-09-19T14:56:15.991Z,77.56
2022-09-19T14:57:24.361Z,77.20
2022-09-19T14:58:35.355Z,76.80
2022-09-19T14:59:43.685Z,76.57
2022-09-19T15:01:03.873Z,76.35
2022-09-19T15:02:32.097Z,76.04
2022-09-19T15:03:46.795Z,75.80
2022-09-19T15:05:05.962Z,75.90
2022-09-19T15:06:36.287Z,75.55
2022-09-19T15:07:44.343Z,75.46
2022-09-19T15:08:51.207Z,75.28
2022-09-19T15:10:00.455Z,75.24
2022-09-19T15:11:08.620Z,74.91
2022-09-19T15:12:23.296Z,74.51
2022-09-19T15:13:30.961Z,74.13
2022-09-19T15:14:44.495Z,73.91
2022-09-19T15:16:03.135Z,73.91
2022-09-19T15:17:40.668Z,73.79
2022-09-19T15:18:49.165Z,72.07
2022-09-19T15:20:21.542Z,72.38
2022-09-19T15:21:29.895Z,71.68
2022-09-19T15:22:46.392Z,70.90
2022-09-19T15:23:52.982Z,71.61
2022-09-19T15:25:01.771Z,71.32
2022-09-19T15:26:12.939Z,71.09
2022-09-19T15:27:26.919Z,71.03
2022-09-19T15:29:19.846Z,70.69
2022-09-19T15:30:32.831Z,70.83
2022-09-19T15:31:40.049Z,69.92
2022-09-19T15:33:09.648Z,68.70
2022-09-19T15:34:20.067Z,68.30
2022-09-19T15:35:31.703Z,68.50
2022-09-19T15:36:39.015Z,68.57
2022-09-19T15:37:45.823Z,68.77
2022-09-19T15:38:56.279Z,68.77
2022-09-19T15:40:03.020Z,68.82
2022-09-19T15:41:09.732Z,68.89
2022-09-19T15:42:15.714Z,68.95
2022-09-19T15:43:23.394Z,68.47
2022-09-19T15:44:32.374Z,67.69
2022-09-19T15:45:51.121Z,67.57
2022-09-19T15:47:27.490Z,67.69
2022-09-19T15:48:52.662Z,67.63
2022-09-19T15:50:03.826Z,67.92
2022-09-19T15:51:09.945Z,67.91
2022-09-19T15:52:32.740Z,66.80
2022-09-19T15:53:42.851Z,65.71
2022-09-19T15:54:53.328Z,65.48
2022-09-19T15:56:15.494Z,65.31
2022-09-19T15:57:36.840Z,65.09
2022-09-19T15:58:44.533Z,64.76
2022-09-19T15:59:50.669Z,64.36
2022-09-19T16:00:57.361Z,63.87
2022-09-19T16:02:10.619Z,63.67
2022-09-19T16:03:22.608Z,63.96
2022-09-19T16:04:32.571Z,63.99
2022-09-19T16:05:39.048Z,64.44
2022-09-19T16:07:16.124Z,64.61
2022-09-19T16:08:43.988Z,64.86
2022-09-19T16:10:11.693Z,64.37
2022-09-19T16:11:41.685Z,63.67
2022-09-19T16:12:50.758Z,63.08
2022-09-19T16:14:04.115Z,63.11
2022-09-19T16:15:39.184Z,62.85
2022-09-19T16:16:45.207Z,62.05
2022-09-19T16:17:57.958Z,61.80
2022-09-19T16:19:05.457Z,61.56
2022-09-19T16:20:34.494Z,61.33
2022-09-19T16:21:44.006Z,60.64
2022-09-19T16:22:55.841Z,59.98
2022-09-19T16:24:05.216Z,59.74
2022-09-19T16:25:19.045Z,59.48
2022-09-19T16:26:47.137Z,59.79
2022-09-19T16:27:58.971Z,59.58
2022-09-19T16:29:27.827Z,58.16
2022-09-19T16:31:01.974Z,56.45
2022-09-19T16:32:20.806Z,56.15
2022-09-19T16:33:46.849Z,55.96
2022-09-19T16:35:03.482Z,55.58
2022-09-19T16:36:19.093Z,55.13
2022-09-19T16:37:43.973Z,54.17
2022-09-19T16:39:12.037Z,52.98
2022-09-19T16:40:26.653Z,52.10
2022-09-19T16:41:37.841Z,51.70
2022-09-19T16:42:47.722Z,51.19
2022-09-19T16:44:21.701Z,50.86
2022-09-19T16:45:54.571Z,50.76
2022-09-19T16:47:09.084Z,50.25
2022-09-19T16:48:20.132Z,50.19
2022-09-19T16:49:26.411Z,50.76
2022-09-19T16:50:36.077Z,51.63
2022-09-19T16:51:43.122Z,51.61
2022-09-19T16:52:51.556Z,51.82
2022-09-19T16:54:02.651Z,51.83
2022-09-19T16:55:40.333Z,52.25
2022-09-19T16:56:47.168Z,53.11
2022-09-19T16:58:01.491Z,53.43
2022-09-19T16:59:24.446Z,53.51
2022-09-19T17:01:19.669Z,53.36
2022-09-19T17:03:12.893Z,53.24
2022-09-19T17:04:23.635Z,53.55
2022-09-19T17:05:37.639Z,53.49
2022-09-19T17:06:58.006Z,52.72
2022-09-19T17:08:11.176Z,52.69
2022-09-19T17:09:19.472Z,53.24
2022-09-19T17:10:26.791Z,53.18
2022-09-19T17:11:33.324Z,53.27
2022-09-19T17:12:41.599Z,53.11
2022-09-19T17:13:50.631Z,52.55
2022-09-19T17:15:20.774Z,52.70
2022-09-19T17:17:11.260Z,52.54
2022-09-19T17:18:32.195Z,51.27
2022-09-19T17:19:46.847Z,50.63
2022-09-19T17:21:05.714Z,50.20
2022-09-19T17:22:17.312Z,48.96
2022-09-19T17:23:30.359Z,48.80
2022-09-19T17:24:38.512Z,49.43
2022-09-19T17:25:47.187Z,49.50
2022-09-19T17:26:58.753Z,49.54
2022-09-19T17:28:07.881Z,49.63
2022-09-19T17:29:24.782Z,48.77
2022-09-19T17:30:39.846Z,48.21
2022-09-19T17:33:39.778Z,47.24
2022-09-19T17:34:46.575Z,46.95
2022-09-19T17:35:53.969Z,46.94
2022-09-19T17:37:09.207Z,46.96
2022-09-19T17:38:30.196Z,46.42
2022-09-19T17:39:37.297Z,45.94
2022-09-19T17:40:49.608Z,45.28
2022-09-19T17:42:02.585Z,44.49
2022-09-19T17:45:04.607Z,44.12
2022-09-19T17:46:15.257Z,43.43
2022-09-19T17:47:43.454Z,42.47
2022-09-19T17:48:59.449Z,42.69
2022-09-19T17:50:10.497Z,43.35
2022-09-19T17:51:20.176Z,42.28
2022-09-19T17:52:32.941Z,41.88
2022-09-19T17:53:43.945Z,41.44
2022-09-19T17:54:53.121Z,40.38
2022-09-19T17:55:59.546Z,40.43
2022-09-19T17:57:06.799Z,40.51
2022-09-19T17:58:15.901Z,40.25
2022-09-19T17:59:37.783Z,40.77
2022-09-19T18:00:45.273Z,39.61
2022-09-19T18:02:33.640Z,38.64
2022-09-19T18:03:47.648Z,38.61
2022-09-19T18:05:00.858Z,39.33
2022-09-19T18:06:08.889Z,39.31
2022-09-19T18:07:15.422Z,39.30
2022-09-19T18:08:30.750Z,39.81
2022-09-19T18:09:46.362Z,39.79
2022-09-19T18:11:02.388Z,40.00
2022-09-19T18:12:11.238Z,39.57
2022-09-19T18:13:20.402Z,39.72
2022-09-19T18:14:27.382Z,40.23
2022-09-19T18:15:38.648Z,40.03
2022-09-19T18:16:48.151Z,40.15
2022-09-19T18:17:58.664Z,40.27
2022-09-19T18:19:10.623Z,39.53
2022-09-19T18:20:27.897Z,38.60
2022-09-19T18:21:34.981Z,38.67
2022-09-19T18:22:41.711Z,38.43
2022-09-19T18:23:51.686Z,37.81
2022-09-19T18:25:07.750Z,37.88
2022-09-19T18:26:19.807Z,38.16
2022-09-19T18:33:11.259Z,37.37
2022-09-19T18:34:44.958Z,36.21
2022-09-19T18:36:00.814Z,35.86
2022-09-19T18:37:19.555Z,35.75
2022-09-19T18:38:30.888Z,35.62
2022-09-19T18:39:51.440Z,34.71
2022-09-19T18:41:00.970Z,34.77
2022-09-19T18:42:07.545Z,35.09
2022-09-19T18:43:16.770Z,35.10
2022-09-19T18:44:24.726Z,34.87
2022-09-19T18:47:06.932Z,35.07
2022-09-19T18:48:16.277Z,34.75
2022-09-19T18:49:25.388Z,34.43
2022-09-19T18:50:31.971Z,34.65
2022-09-19T18:51:38.439Z,34.38
2022-09-19T18:52:45.500Z,34.03
2022-09-19T18:53:53.460Z,33.81
2022-09-19T18:55:02.617Z,33.89
2022-09-19T18:56:09.534Z,34.39
2022-09-19T18:57:19.545Z,34.61
2022-09-19T18:58:27.341Z,34.08
2022-09-19T18:59:36.547Z,34.11
2022-09-19T19:00:47.214Z,34.18
2022-09-19T19:02:02.162Z,34.24
2022-09-19T19:03:14.710Z,34.07
2022-09-19T19:04:30.494Z,33.72
2022-09-19T19:07:17.457Z,33.70
2022-09-19T19:08:27.657Z,33.48
2022-09-19T19:09:43.486Z,33.64
2022-09-19T19:10:52.933Z,33.57
2022-09-19T19:12:17.204Z,33.70
2022-09-19T19:13:28.972Z,33.35
2022-09-19T19:14:36.140Z,33.24
2022-09-19T19:15:42.125Z,32.63
2022-09-19T19:16:47.983Z,32.25
2022-09-19T19:17:55.427Z,31.93
2022-09-19T19:19:01.431Z,31.73
2022-09-19T19:20:09.384Z,31.05
2022-09-19T19:21:15.583Z,31.57
2022-09-19T19:22:22.820Z,31.25
2022-09-19T19:23:29.907Z,31.47
2022-09-19T19:24:36.995Z,31.05
2022-09-19T19:25:45.826Z,30.85
2022-09-19T19:26:52.707Z,30.87
2022-09-19T19:28:00.106Z,30.86
2022-09-19T19:29:10.558Z,30.28
2022-09-19T19:30:17.773Z,30.12
2022-09-19T19:31:27.628Z,29.60
2022-09-19T19:32:33.704Z,28.90
2022-09-19T19:33:42.307Z,28.58
2022-09-19T19:34:51.494Z,27.99
2022-09-19T19:36:01.282Z,27.94
2022-09-19T19:37:10.168Z,27.90
2022-09-19T19:38:21.042Z,27.59
2022-09-19T19:39:29.417Z,27.35
2022-09-19T19:40:39.894Z,27.62
2022-09-19T19:42:10.012Z,27.84
2022-09-19T19:43:39.289Z,27.57
2022-09-19T19:45:05.442Z,27.73
2022-09-19T19:46:36.178Z,27.37
2022-09-19T19:48:00.075Z,27.39
2022-09-19T19:49:09.378Z,27.47
2022-09-19T19:50:18.324Z,27.58
2022-09-19T19:51:30.147Z,27.22
2022-09-19T19:52:37.692Z,27.52
2022-09-19T19:54:07.360Z,27.42
2022-09-19T19:55:24.066Z,27.12
2022-09-19T19:56:33.722Z,27.00
2022-09-19T19:57:41.337Z,26.84
2022-09-19T19:58:49.888Z,26.67
2022-09-19T19:59:58.200Z,26.97
2022-09-19T20:01:29.794Z,27.27
2022-09-19T20:03:00.058Z,27.47
2022-09-19T20:04:22.184Z,27.41
2022-09-19T20:05:34.875Z,27.69
2022-09-19T20:06:49.598Z,27.37
2022-09-19T20:07:56.559Z,27.40
2022-09-19T20:09:07.119Z,27.38
2022-09-19T20:10:18.542Z,27.28
2022-09-19T20:13:54.092Z,27.09
2022-09-19T20:15:02.645Z,26.89
2022-09-19T20:16:15.501Z,26.72
2022-09-19T20:17:25.280Z,26.74
2022-09-19T20:18:30.799Z,27.18
2022-09-19T20:18:38.348Z,26.85
2022-09-19T20:19:47.549Z,26.81
2022-09-19T20:20:54.281Z,26.03
2022-09-19T20:22:08.151Z,25.58
2022-09-19T20:23:15.821Z,25.61
2022-09-19T20:24:24.546Z,25.62
2022-09-19T20:25:31.292Z,25.59
2022-09-19T20:26:40.675Z,25.48
2022-09-19T20:27:46.447Z,25.67
2022-09-19T20:28:53.705Z,25.30
2022-09-19T20:29:59.657Z,25.13
2022-09-19T20:31:08.416Z,25.15
2022-09-19T20:32:16.869Z,25.03
2022-09-19T20:33:24.362Z,24.51